sensor_id;sensor_type;location;lat;lon;timestamp;P1;durP1;ratioP1;P2;durP2;ratioP2
9880;SDS011;4979;51.014;6.678;2022-07-23T00:00:14;12.77;;;10.68;;
9880;SDS011;4979;51.014;6.678;2022-07-23T00:02:40;12.70;;;10.18;;
9880;SDS011;4979;51.014;6.678;2022-07-23T00:05:06;12.30;;;11.00;;
9880;SDS011;4979;51.014;6.678;2022-07-23T00:07:33;15.93;;;12.10;;
9880;SDS011;4979;51.014;6.678;2022-07-23T00:09:59;14.77;;;12.35;;
9880;SDS011;4979;51.014;6.678;2022-07-23T00:12:24;16.00;;;12.68;;
9880;SDS011;4979;51.014;6.678;2022-07-23T00:14:50;16.05;;;13.15;;
9880;SDS011;4979;51.014;6.678;2022-07-23T00:17:16;16.98;;;12.95;;
9880;SDS011;4979;51.014;6.678;2022-07-23T00:19:42;16.35;;;12.52;;
9880;SDS011;4979;51.014;6.678;2022-07-23T00:22:07;17.13;;;15.20;;
9880;SDS011;4979;51.014;6.678;2022-07-23T00:24:33;19.88;;;15.40;;
9880;SDS011;4979;51.014;6.678;2022-07-23T00:26:58;18.30;;;15.30;;
9880;SDS011;4979;51.014;6.678;2022-07-23T00:29:24;21.38;;;16.80;;
9880;SDS011;4979;51.014;6.678;2022-07-23T00:31:49;20.10;;;17.38;;
9880;SDS011;4979;51.014;6.678;2022-07-23T00:34:15;23.92;;;16.67;;
9880;SDS011;4979;51.014;6.678;2022-07-23T00:36:41;24.58;;;18.27;;
9880;SDS011;4979;51.014;6.678;2022-07-23T00:39:06;21.65;;;17.92;;
9880;SDS011;4979;51.014;6.678;2022-07-23T00:41:32;23.45;;;18.15;;
9880;SDS011;4979;51.014;6.678;2022-07-23T00:46:45;22.27;;;17.83;;
9880;SDS011;4979;51.014;6.678;2022-07-23T00:49:11;22.58;;;18.30;;
9880;SDS011;4979;51.014;6.678;2022-07-23T00:51:37;23.30;;;18.65;;
9880;SDS011;4979;51.014;6.678;2022-07-23T00:54:02;23.73;;;18.17;;
9880;SDS011;4979;51.014;6.678;2022-07-23T00:56:29;24.52;;;18.23;;
9880;SDS011;4979;51.014;6.678;2022-07-23T00:58:55;22.75;;;16.88;;
9880;SDS011;4979;51.014;6.678;2022-07-23T01:01:21;21.20;;;17.17;;
9880;SDS011;4979;51.014;6.678;2022-07-23T01:03:47;23.73;;;18.50;;
9880;SDS011;4979;51.014;6.678;2022-07-23T01:06:13;23.55;;;17.95;;
9880;SDS011;4979;51.014;6.678;2022-07-23T01:08:39;25.00;;;18.70;;
9880;SDS011;4979;51.014;6.678;2022-07-23T01:11:05;25.13;;;18.05;;
9880;SDS011;4979;51.014;6.678;2022-07-23T01:13:30;23.98;;;19.40;;
9880;SDS011;4979;51.014;6.678;2022-07-23T01:15:56;24.23;;;19.23;;
9880;SDS011;4979;51.014;6.678;2022-07-23T01:18:21;26.63;;;21.63;;
9880;SDS011;4979;51.014;6.678;2022-07-23T01:20:47;28.02;;;20.58;;
9880;SDS011;4979;51.014;6.678;2022-07-23T01:23:13;23.67;;;19.63;;
9880;SDS011;4979;51.014;6.678;2022-07-23T01:25:46;24.00;;;18.50;;
9880;SDS011;4979;51.014;6.678;2022-07-23T01:28:13;24.20;;;18.75;;
9880;SDS011;4979;51.014;6.678;2022-07-23T01:30:39;22.95;;;17.63;;
9880;SDS011;4979;51.014;6.678;2022-07-23T01:33:04;23.20;;;17.58;;
9880;SDS011;4979;51.014;6.678;2022-07-23T01:35:30;28.02;;;16.90;;
9880;SDS011;4979;51.014;6.678;2022-07-23T01:37:56;24.80;;;17.27;;
9880;SDS011;4979;51.014;6.678;2022-07-23T01:40:22;19.00;;;16.27;;
9880;SDS011;4979;51.014;6.678;2022-07-23T01:42:47;23.85;;;16.70;;
9880;SDS011;4979;51.014;6.678;2022-07-23T01:45:13;22.73;;;17.77;;
9880;SDS011;4979;51.014;6.678;2022-07-23T01:47:38;21.92;;;18.00;;
9880;SDS011;4979;51.014;6.678;2022-07-23T01:50:04;23.67;;;17.20;;
9880;SDS011;4979;51.014;6.678;2022-07-23T01:52:30;24.65;;;18.92;;
9880;SDS011;4979;51.014;6.678;2022-07-23T01:54:56;25.38;;;17.17;;
9880;SDS011;4979;51.014;6.678;2022-07-23T01:57:21;22.80;;;18.17;;
9880;SDS011;4979;51.014;6.678;2022-07-23T01:59:47;25.30;;;19.85;;
9880;SDS011;4979;51.014;6.678;2022-07-23T02:02:12;27.73;;;21.15;;
9880;SDS011;4979;51.014;6.678;2022-07-23T02:04:38;25.73;;;20.23;;
9880;SDS011;4979;51.014;6.678;2022-07-23T02:07:04;29.80;;;20.23;;
9880;SDS011;4979;51.014;6.678;2022-07-23T02:09:30;26.75;;;20.27;;
9880;SDS011;4979;51.014;6.678;2022-07-23T02:11:56;31.02;;;20.38;;
9880;SDS011;4979;51.014;6.678;2022-07-23T02:14:22;25.58;;;19.70;;
9880;SDS011;4979;51.014;6.678;2022-07-23T02:16:48;28.63;;;20.75;;
9880;SDS011;4979;51.014;6.678;2022-07-23T02:19:14;27.52;;;20.85;;
9880;SDS011;4979;51.014;6.678;2022-07-23T02:21:39;28.20;;;20.35;;
9880;SDS011;4979;51.014;6.678;2022-07-23T02:24:05;21.80;;;17.33;;
9880;SDS011;4979;51.014;6.678;2022-07-23T02:26:31;21.80;;;16.55;;
9880;SDS011;4979;51.014;6.678;2022-07-23T02:28:59;18.08;;;14.48;;
9880;SDS011;4979;51.014;6.678;2022-07-23T02:31:25;16.65;;;13.73;;
9880;SDS011;4979;51.014;6.678;2022-07-23T02:33:51;13.63;;;12.20;;
9880;SDS011;4979;51.014;6.678;2022-07-23T02:36:16;13.57;;;12.15;;
9880;SDS011;4979;51.014;6.678;2022-07-23T02:38:42;28.13;;;12.23;;
9880;SDS011;4979;51.014;6.678;2022-07-23T02:41:08;19.55;;;13.00;;
9880;SDS011;4979;51.014;6.678;2022-07-23T02:43:33;16.35;;;14.27;;
9880;SDS011;4979;51.014;6.678;2022-07-23T02:45:59;16.20;;;13.07;;
9880;SDS011;4979;51.014;6.678;2022-07-23T02:48:25;16.83;;;13.73;;
9880;SDS011;4979;51.014;6.678;2022-07-23T02:50:51;18.17;;;14.25;;
9880;SDS011;4979;51.014;6.678;2022-07-23T02:53:17;15.90;;;12.70;;
9880;SDS011;4979;51.014;6.678;2022-07-23T02:55:43;17.15;;;13.70;;
9880;SDS011;4979;51.014;6.678;2022-07-23T02:58:08;17.45;;;11.63;;
9880;SDS011;4979;51.014;6.678;2022-07-23T03:00:34;19.00;;;13.93;;
9880;SDS011;4979;51.014;6.678;2022-07-23T03:02:59;19.10;;;14.40;;
9880;SDS011;4979;51.014;6.678;2022-07-23T03:05:25;17.85;;;15.02;;
9880;SDS011;4979;51.014;6.678;2022-07-23T03:07:51;18.90;;;15.30;;
9880;SDS011;4979;51.014;6.678;2022-07-23T03:10:16;21.65;;;16.50;;
9880;SDS011;4979;51.014;6.678;2022-07-23T03:12:42;24.23;;;17.67;;
9880;SDS011;4979;51.014;6.678;2022-07-23T03:15:07;23.17;;;17.98;;
9880;SDS011;4979;51.014;6.678;2022-07-23T03:17:34;27.30;;;18.75;;
9880;SDS011;4979;51.014;6.678;2022-07-23T03:19:59;21.48;;;17.27;;
9880;SDS011;4979;51.014;6.678;2022-07-23T03:22:25;26.50;;;18.58;;
9880;SDS011;4979;51.014;6.678;2022-07-23T03:24:50;27.23;;;19.88;;
9880;SDS011;4979;51.014;6.678;2022-07-23T03:27:19;24.35;;;17.98;;
9880;SDS011;4979;51.014;6.678;2022-07-23T03:29:49;29.80;;;20.30;;
9880;SDS011;4979;51.014;6.678;2022-07-23T03:32:16;33.53;;;21.30;;
9880;SDS011;4979;51.014;6.678;2022-07-23T03:34:42;27.33;;;21.05;;
9880;SDS011;4979;51.014;6.678;2022-07-23T03:37:07;29.13;;;18.60;;
9880;SDS011;4979;51.014;6.678;2022-07-23T03:39:33;31.30;;;19.30;;
9880;SDS011;4979;51.014;6.678;2022-07-23T03:41:59;30.90;;;21.90;;
9880;SDS011;4979;51.014;6.678;2022-07-23T03:44:25;27.95;;;21.73;;
9880;SDS011;4979;51.014;6.678;2022-07-23T03:46:51;29.10;;;20.95;;
9880;SDS011;4979;51.014;6.678;2022-07-23T03:49:16;28.20;;;19.75;;
9880;SDS011;4979;51.014;6.678;2022-07-23T03:51:42;26.73;;;18.38;;
9880;SDS011;4979;51.014;6.678;2022-07-23T03:54:08;31.25;;;15.93;;
9880;SDS011;4979;51.014;6.678;2022-07-23T03:56:33;21.35;;;14.95;;
9880;SDS011;4979;51.014;6.678;2022-07-23T03:58:59;19.90;;;15.68;;
9880;SDS011;4979;51.014;6.678;2022-07-23T04:01:25;19.83;;;16.17;;
9880;SDS011;4979;51.014;6.678;2022-07-23T04:03:50;23.13;;;16.95;;
9880;SDS011;4979;51.014;6.678;2022-07-23T04:06:16;25.70;;;16.70;;
9880;SDS011;4979;51.014;6.678;2022-07-23T04:08:41;20.17;;;15.00;;
9880;SDS011;4979;51.014;6.678;2022-07-23T04:11:07;17.75;;;13.75;;
9880;SDS011;4979;51.014;6.678;2022-07-23T04:13:32;19.40;;;14.82;;
9880;SDS011;4979;51.014;6.678;2022-07-23T04:15:58;21.33;;;15.10;;
9880;SDS011;4979;51.014;6.678;2022-07-23T04:18:24;18.10;;;15.23;;
9880;SDS011;4979;51.014;6.678;2022-07-23T04:20:52;19.48;;;16.10;;
9880;SDS011;4979;51.014;6.678;2022-07-23T04:23:18;24.92;;;14.95;;
9880;SDS011;4979;51.014;6.678;2022-07-23T04:25:44;16.92;;;13.48;;
9880;SDS011;4979;51.014;6.678;2022-07-23T04:28:09;16.48;;;12.05;;
9880;SDS011;4979;51.014;6.678;2022-07-23T04:30:35;17.58;;;13.25;;
9880;SDS011;4979;51.014;6.678;2022-07-23T04:33:01;12.80;;;11.50;;
9880;SDS011;4979;51.014;6.678;2022-07-23T04:35:30;16.85;;;12.10;;
9880;SDS011;4979;51.014;6.678;2022-07-23T04:37:56;17.15;;;13.35;;
9880;SDS011;4979;51.014;6.678;2022-07-23T04:40:21;17.85;;;13.98;;
9880;SDS011;4979;51.014;6.678;2022-07-23T04:42:47;16.45;;;13.55;;
9880;SDS011;4979;51.014;6.678;2022-07-23T04:45:12;19.88;;;14.27;;
9880;SDS011;4979;51.014;6.678;2022-07-23T04:47:38;18.30;;;13.55;;
9880;SDS011;4979;51.014;6.678;2022-07-23T04:50:03;16.77;;;14.32;;
9880;SDS011;4979;51.014;6.678;2022-07-23T04:52:29;20.77;;;16.05;;
9880;SDS011;4979;51.014;6.678;2022-07-23T04:54:55;18.92;;;14.23;;
9880;SDS011;4979;51.014;6.678;2022-07-23T04:57:20;20.20;;;15.68;;
9880;SDS011;4979;51.014;6.678;2022-07-23T04:59:46;25.25;;;17.30;;
9880;SDS011;4979;51.014;6.678;2022-07-23T05:02:12;31.30;;;17.08;;
9880;SDS011;4979;51.014;6.678;2022-07-23T05:04:37;23.73;;;16.08;;
9880;SDS011;4979;51.014;6.678;2022-07-23T05:07:03;21.05;;;14.57;;
9880;SDS011;4979;51.014;6.678;2022-07-23T05:09:29;19.42;;;15.02;;
9880;SDS011;4979;51.014;6.678;2022-07-23T05:11:54;20.33;;;14.73;;
9880;SDS011;4979;51.014;6.678;2022-07-23T05:14:20;20.23;;;15.23;;
9880;SDS011;4979;51.014;6.678;2022-07-23T05:16:46;29.20;;;14.15;;
9880;SDS011;4979;51.014;6.678;2022-07-23T05:19:11;16.58;;;12.98;;
9880;SDS011;4979;51.014;6.678;2022-07-23T05:21:37;20.17;;;14.07;;
9880;SDS011;4979;51.014;6.678;2022-07-23T05:24:03;23.27;;;13.77;;
9880;SDS011;4979;51.014;6.678;2022-07-23T05:26:29;19.55;;;13.18;;
9880;SDS011;4979;51.014;6.678;2022-07-23T05:28:54;19.67;;;13.52;;
9880;SDS011;4979;51.014;6.678;2022-07-23T05:31:20;16.33;;;13.25;;
9880;SDS011;4979;51.014;6.678;2022-07-23T05:33:45;17.17;;;12.80;;
9880;SDS011;4979;51.014;6.678;2022-07-23T05:36:11;20.08;;;13.00;;
9880;SDS011;4979;51.014;6.678;2022-07-23T05:38:36;15.55;;;11.57;;
9880;SDS011;4979;51.014;6.678;2022-07-23T05:41:02;25.17;;;12.85;;
9880;SDS011;4979;51.014;6.678;2022-07-23T05:43:28;20.58;;;14.02;;
9880;SDS011;4979;51.014;6.678;2022-07-23T05:45:54;17.17;;;12.25;;
9880;SDS011;4979;51.014;6.678;2022-07-23T05:48:20;17.48;;;13.80;;
9880;SDS011;4979;51.014;6.678;2022-07-23T05:50:46;18.70;;;13.02;;
9880;SDS011;4979;51.014;6.678;2022-07-23T05:53:12;19.02;;;14.25;;
9880;SDS011;4979;51.014;6.678;2022-07-23T05:55:38;20.30;;;12.85;;
9880;SDS011;4979;51.014;6.678;2022-07-23T05:58:03;18.02;;;14.20;;
9880;SDS011;4979;51.014;6.678;2022-07-23T06:00:29;21.10;;;14.50;;
9880;SDS011;4979;51.014;6.678;2022-07-23T06:02:55;21.80;;;15.60;;
9880;SDS011;4979;51.014;6.678;2022-07-23T06:05:20;27.08;;;17.77;;
9880;SDS011;4979;51.014;6.678;2022-07-23T06:07:46;29.13;;;17.30;;
9880;SDS011;4979;51.014;6.678;2022-07-23T06:10:12;26.00;;;17.67;;
9880;SDS011;4979;51.014;6.678;2022-07-23T06:12:37;23.02;;;16.15;;
9880;SDS011;4979;51.014;6.678;2022-07-23T06:15:03;24.45;;;15.35;;
9880;SDS011;4979;51.014;6.678;2022-07-23T06:17:29;20.88;;;15.95;;
9880;SDS011;4979;51.014;6.678;2022-07-23T06:19:55;21.95;;;16.75;;
9880;SDS011;4979;51.014;6.678;2022-07-23T06:22:21;24.45;;;17.40;;
9880;SDS011;4979;51.014;6.678;2022-07-23T06:24:47;26.75;;;17.35;;
9880;SDS011;4979;51.014;6.678;2022-07-23T06:27:13;20.58;;;15.85;;
9880;SDS011;4979;51.014;6.678;2022-07-23T06:29:39;23.65;;;17.08;;
9880;SDS011;4979;51.014;6.678;2022-07-23T06:32:05;24.85;;;16.80;;
9880;SDS011;4979;51.014;6.678;2022-07-23T06:34:31;25.60;;;17.75;;
9880;SDS011;4979;51.014;6.678;2022-07-23T06:36:57;22.42;;;17.10;;
9880;SDS011;4979;51.014;6.678;2022-07-23T06:39:23;33.50;;;18.27;;
9880;SDS011;4979;51.014;6.678;2022-07-23T06:41:49;23.80;;;18.20;;
9880;SDS011;4979;51.014;6.678;2022-07-23T06:44:15;23.85;;;17.30;;
9880;SDS011;4979;51.014;6.678;2022-07-23T06:46:40;21.75;;;17.95;;
9880;SDS011;4979;51.014;6.678;2022-07-23T06:49:06;22.90;;;17.50;;
9880;SDS011;4979;51.014;6.678;2022-07-23T06:51:32;20.40;;;17.27;;
9880;SDS011;4979;51.014;6.678;2022-07-23T06:53:57;22.55;;;16.33;;
9880;SDS011;4979;51.014;6.678;2022-07-23T06:56:23;27.63;;;16.83;;
9880;SDS011;4979;51.014;6.678;2022-07-23T06:58:49;25.58;;;17.15;;
9880;SDS011;4979;51.014;6.678;2022-07-23T07:01:15;22.15;;;16.58;;
9880;SDS011;4979;51.014;6.678;2022-07-23T07:03:40;20.92;;;15.68;;
9880;SDS011;4979;51.014;6.678;2022-07-23T07:06:06;23.80;;;16.70;;
9880;SDS011;4979;51.014;6.678;2022-07-23T07:08:32;21.10;;;15.68;;
9880;SDS011;4979;51.014;6.678;2022-07-23T07:10:57;21.88;;;15.90;;
9880;SDS011;4979;51.014;6.678;2022-07-23T07:13:23;26.63;;;16.90;;
9880;SDS011;4979;51.014;6.678;2022-07-23T07:15:48;25.45;;;18.08;;
9880;SDS011;4979;51.014;6.678;2022-07-23T07:18:14;23.20;;;17.98;;
9880;SDS011;4979;51.014;6.678;2022-07-23T07:20:39;25.92;;;16.95;;
9880;SDS011;4979;51.014;6.678;2022-07-23T07:23:05;20.92;;;17.08;;
9880;SDS011;4979;51.014;6.678;2022-07-23T07:25:31;21.42;;;17.38;;
9880;SDS011;4979;51.014;6.678;2022-07-23T07:27:56;21.70;;;17.80;;
9880;SDS011;4979;51.014;6.678;2022-07-23T07:30:22;23.73;;;18.60;;
9880;SDS011;4979;51.014;6.678;2022-07-23T07:32:47;24.25;;;17.63;;
9880;SDS011;4979;51.014;6.678;2022-07-23T07:35:13;22.20;;;16.80;;
9880;SDS011;4979;51.014;6.678;2022-07-23T07:37:39;25.48;;;17.30;;
9880;SDS011;4979;51.014;6.678;2022-07-23T07:40:04;23.33;;;17.10;;
9880;SDS011;4979;51.014;6.678;2022-07-23T07:42:30;20.20;;;15.70;;
9880;SDS011;4979;51.014;6.678;2022-07-23T07:44:57;25.77;;;17.13;;
9880;SDS011;4979;51.014;6.678;2022-07-23T07:47:23;29.67;;;18.98;;
9880;SDS011;4979;51.014;6.678;2022-07-23T07:49:48;29.35;;;19.55;;
9880;SDS011;4979;51.014;6.678;2022-07-23T07:52:14;25.20;;;19.20;;
9880;SDS011;4979;51.014;6.678;2022-07-23T07:54:40;24.75;;;19.60;;
9880;SDS011;4979;51.014;6.678;2022-07-23T07:57:05;26.38;;;19.42;;
9880;SDS011;4979;51.014;6.678;2022-07-23T07:59:31;26.75;;;20.05;;
9880;SDS011;4979;51.014;6.678;2022-07-23T08:01:56;44.78;;;22.88;;
9880;SDS011;4979;51.014;6.678;2022-07-23T08:04:22;27.05;;;20.33;;
9880;SDS011;4979;51.014;6.678;2022-07-23T08:06:47;28.77;;;22.60;;
9880;SDS011;4979;51.014;6.678;2022-07-23T08:09:13;24.70;;;20.92;;
9880;SDS011;4979;51.014;6.678;2022-07-23T08:11:39;28.75;;;22.40;;
9880;SDS011;4979;51.014;6.678;2022-07-23T08:14:04;28.95;;;20.92;;
9880;SDS011;4979;51.014;6.678;2022-07-23T08:16:30;24.90;;;19.30;;
9880;SDS011;4979;51.014;6.678;2022-07-23T08:18:56;24.45;;;18.38;;
9880;SDS011;4979;51.014;6.678;2022-07-23T08:21:21;24.42;;;17.70;;
9880;SDS011;4979;51.014;6.678;2022-07-23T08:23:47;24.27;;;18.65;;
9880;SDS011;4979;51.014;6.678;2022-07-23T08:26:13;25.85;;;19.20;;
9880;SDS011;4979;51.014;6.678;2022-07-23T08:28:38;25.38;;;18.30;;
9880;SDS011;4979;51.014;6.678;2022-07-23T08:31:04;23.50;;;18.23;;
9880;SDS011;4979;51.014;6.678;2022-07-23T08:33:30;29.02;;;18.25;;
9880;SDS011;4979;51.014;6.678;2022-07-23T08:35:56;21.42;;;16.00;;
9880;SDS011;4979;51.014;6.678;2022-07-23T08:38:22;18.13;;;14.18;;
9880;SDS011;4979;51.014;6.678;2022-07-23T08:40:49;21.08;;;15.48;;
9880;SDS011;4979;51.014;6.678;2022-07-23T08:43:17;19.30;;;14.45;;
9880;SDS011;4979;51.014;6.678;2022-07-23T08:45:45;21.58;;;15.68;;
9880;SDS011;4979;51.014;6.678;2022-07-23T08:48:13;19.17;;;14.30;;
9880;SDS011;4979;51.014;6.678;2022-07-23T08:50:44;16.70;;;13.70;;
9880;SDS011;4979;51.014;6.678;2022-07-23T08:53:11;17.30;;;13.85;;
9880;SDS011;4979;51.014;6.678;2022-07-23T08:55:37;17.50;;;12.68;;
9880;SDS011;4979;51.014;6.678;2022-07-23T08:58:03;21.38;;;12.95;;
9880;SDS011;4979;51.014;6.678;2022-07-23T09:00:29;16.27;;;10.90;;
9880;SDS011;4979;51.014;6.678;2022-07-23T09:02:55;15.00;;;11.27;;
9880;SDS011;4979;51.014;6.678;2022-07-23T09:05:20;18.75;;;13.07;;
9880;SDS011;4979;51.014;6.678;2022-07-23T09:13:26;17.63;;;13.50;;
9880;SDS011;4979;51.014;6.678;2022-07-23T09:16:07;19.92;;;12.25;;
9880;SDS011;4979;51.014;6.678;2022-07-23T09:21:07;17.02;;;12.52;;
9880;SDS011;4979;51.014;6.678;2022-07-23T09:23:47;15.00;;;12.00;;
9880;SDS011;4979;51.014;6.678;2022-07-23T09:26:28;18.30;;;12.88;;
9880;SDS011;4979;51.014;6.678;2022-07-23T09:29:02;13.95;;;11.40;;
9880;SDS011;4979;51.014;6.678;2022-07-23T09:31:42;16.85;;;13.23;;
9880;SDS011;4979;51.014;6.678;2022-07-23T09:34:12;16.63;;;11.90;;
9880;SDS011;4979;51.014;6.678;2022-07-23T09:36:39;15.45;;;12.23;;
9880;SDS011;4979;51.014;6.678;2022-07-23T09:39:06;13.98;;;11.05;;
9880;SDS011;4979;51.014;6.678;2022-07-23T09:41:36;16.38;;;12.48;;
9880;SDS011;4979;51.014;6.678;2022-07-23T09:44:16;16.60;;;12.10;;
9880;SDS011;4979;51.014;6.678;2022-07-23T09:46:47;14.90;;;10.60;;
9880;SDS011;4979;51.014;6.678;2022-07-23T09:51:51;12.80;;;10.88;;
9880;SDS011;4979;51.014;6.678;2022-07-23T09:54:23;15.68;;;10.55;;
9880;SDS011;4979;51.014;6.678;2022-07-23T09:56:52;13.38;;;9.88;;
9880;SDS011;4979;51.014;6.678;2022-07-23T09:59:21;20.48;;;10.13;;
9880;SDS011;4979;51.014;6.678;2022-07-23T10:01:51;20.85;;;10.95;;
9880;SDS011;4979;51.014;6.678;2022-07-23T10:04:18;14.25;;;11.00;;
9880;SDS011;4979;51.014;6.678;2022-07-23T10:06:45;14.73;;;10.27;;
9880;SDS011;4979;51.014;6.678;2022-07-23T10:09:12;13.07;;;9.82;;
9880;SDS011;4979;51.014;6.678;2022-07-23T10:11:41;10.80;;;9.68;;
9880;SDS011;4979;51.014;6.678;2022-07-23T10:14:07;9.52;;;8.52;;
9880;SDS011;4979;51.014;6.678;2022-07-23T10:16:33;11.10;;;8.70;;
9880;SDS011;4979;51.014;6.678;2022-07-23T10:18:59;12.65;;;8.52;;
9880;SDS011;4979;51.014;6.678;2022-07-23T10:21:42;11.35;;;9.38;;
9880;SDS011;4979;51.014;6.678;2022-07-23T10:27:16;16.10;;;10.35;;
9880;SDS011;4979;51.014;6.678;2022-07-23T10:30:07;8.20;;;5.60;;
9880;SDS011;4979;51.014;6.678;2022-07-23T10:38:42;10.50;;;7.90;;
9880;SDS011;4979;51.014;6.678;2022-07-23T10:41:11;10.68;;;8.20;;
9880;SDS011;4979;51.014;6.678;2022-07-23T10:43:37;8.43;;;7.55;;
9880;SDS011;4979;51.014;6.678;2022-07-23T10:49:24;9.15;;;7.80;;
9880;SDS011;4979;51.014;6.678;2022-07-23T10:54:39;9.13;;;7.60;;
9880;SDS011;4979;51.014;6.678;2022-07-23T10:57:07;17.80;;;8.15;;
9880;SDS011;4979;51.014;6.678;2022-07-23T11:02:37;10.57;;;5.47;;
9880;SDS011;4979;51.014;6.678;2022-07-23T11:05:05;8.07;;;5.90;;
9880;SDS011;4979;51.014;6.678;2022-07-23T11:07:33;6.13;;;5.53;;
9880;SDS011;4979;51.014;6.678;2022-07-23T11:09:59;9.93;;;6.47;;
9880;SDS011;4979;51.014;6.678;2022-07-23T11:15:10;7.35;;;5.00;;
9880;SDS011;4979;51.014;6.678;2022-07-23T11:17:38;9.20;;;5.63;;
9880;SDS011;4979;51.014;6.678;2022-07-23T11:22:45;5.25;;;4.80;;
9880;SDS011;4979;51.014;6.678;2022-07-23T11:27:55;5.22;;;4.28;;
9880;SDS011;4979;51.014;6.678;2022-07-23T11:35:33;4.10;;;3.70;;
9880;SDS011;4979;51.014;6.678;2022-07-23T11:38:05;5.18;;;3.60;;
9880;SDS011;4979;51.014;6.678;2022-07-23T11:40:54;5.20;;;3.40;;
9880;SDS011;4979;51.014;6.678;2022-07-23T11:43:24;4.45;;;3.80;;
9880;SDS011;4979;51.014;6.678;2022-07-23T11:45:51;4.03;;;3.67;;
9880;SDS011;4979;51.014;6.678;2022-07-23T11:48:22;3.50;;;3.20;;
9880;SDS011;4979;51.014;6.678;2022-07-23T11:50:50;5.57;;;4.30;;
9880;SDS011;4979;51.014;6.678;2022-07-23T11:53:21;6.63;;;3.83;;
9880;SDS011;4979;51.014;6.678;2022-07-23T11:55:48;4.90;;;3.40;;
9880;SDS011;4979;51.014;6.678;2022-07-23T11:58:14;3.63;;;3.05;;
9880;SDS011;4979;51.014;6.678;2022-07-23T12:00:40;7.28;;;3.38;;
9880;SDS011;4979;51.014;6.678;2022-07-23T12:03:06;4.43;;;3.72;;
9880;SDS011;4979;51.014;6.678;2022-07-23T12:05:33;4.03;;;3.63;;
9880;SDS011;4979;51.014;6.678;2022-07-23T12:08:02;4.28;;;3.85;;
9880;SDS011;4979;51.014;6.678;2022-07-23T12:10:30;4.38;;;3.20;;
9880;SDS011;4979;51.014;6.678;2022-07-23T12:13:10;3.70;;;3.25;;
9880;SDS011;4979;51.014;6.678;2022-07-23T12:15:47;8.07;;;3.55;;
9880;SDS011;4979;51.014;6.678;2022-07-23T12:18:16;5.60;;;3.67;;
9880;SDS011;4979;51.014;6.678;2022-07-23T12:20:45;5.82;;;2.95;;
9880;SDS011;4979;51.014;6.678;2022-07-23T12:23:13;4.43;;;3.20;;
9880;SDS011;4979;51.014;6.678;2022-07-23T12:25:42;2.75;;;2.53;;
9880;SDS011;4979;51.014;6.678;2022-07-23T12:28:13;5.07;;;3.25;;
9880;SDS011;4979;51.014;6.678;2022-07-23T12:30:53;7.03;;;3.22;;
9880;SDS011;4979;51.014;6.678;2022-07-23T12:33:34;3.78;;;3.03;;
9880;SDS011;4979;51.014;6.678;2022-07-23T12:36:03;4.95;;;2.75;;
9880;SDS011;4979;51.014;6.678;2022-07-23T12:38:38;3.67;;;3.38;;
9880;SDS011;4979;51.014;6.678;2022-07-23T12:41:07;5.22;;;2.42;;
9880;SDS011;4979;51.014;6.678;2022-07-23T12:43:36;3.88;;;2.88;;
9880;SDS011;4979;51.014;6.678;2022-07-23T12:46:04;4.22;;;3.00;;
9880;SDS011;4979;51.014;6.678;2022-07-23T12:48:32;3.83;;;2.80;;
9880;SDS011;4979;51.014;6.678;2022-07-23T12:53:40;4.13;;;3.22;;
9880;SDS011;4979;51.014;6.678;2022-07-23T12:56:09;3.95;;;3.28;;
9880;SDS011;4979;51.014;6.678;2022-07-23T13:06:46;3.88;;;2.75;;
9880;SDS011;4979;51.014;6.678;2022-07-23T13:09:15;6.10;;;3.20;;
9880;SDS011;4979;51.014;6.678;2022-07-23T13:11:43;3.13;;;2.78;;
9880;SDS011;4979;51.014;6.678;2022-07-23T13:14:10;5.68;;;2.80;;
9880;SDS011;4979;51.014;6.678;2022-07-23T13:16:37;4.50;;;3.28;;
9880;SDS011;4979;51.014;6.678;2022-07-23T13:19:03;4.85;;;3.25;;
9880;SDS011;4979;51.014;6.678;2022-07-23T13:21:28;2.75;;;2.55;;
9880;SDS011;4979;51.014;6.678;2022-07-23T13:23:55;3.92;;;2.70;;
9880;SDS011;4979;51.014;6.678;2022-07-23T13:26:21;3.22;;;2.63;;
9880;SDS011;4979;51.014;6.678;2022-07-23T13:28:47;4.05;;;2.60;;
9880;SDS011;4979;51.014;6.678;2022-07-23T13:31:13;2.92;;;2.50;;
9880;SDS011;4979;51.014;6.678;2022-07-23T13:33:39;5.00;;;2.78;;
9880;SDS011;4979;51.014;6.678;2022-07-23T13:36:05;5.88;;;2.97;;
9880;SDS011;4979;51.014;6.678;2022-07-23T13:38:31;3.38;;;2.97;;
9880;SDS011;4979;51.014;6.678;2022-07-23T13:40:57;4.65;;;2.40;;
9880;SDS011;4979;51.014;6.678;2022-07-23T13:43:24;4.47;;;2.80;;
9880;SDS011;4979;51.014;6.678;2022-07-23T13:45:51;5.75;;;3.25;;
9880;SDS011;4979;51.014;6.678;2022-07-23T13:48:17;4.68;;;3.00;;
9880;SDS011;4979;51.014;6.678;2022-07-23T13:50:43;2.60;;;2.40;;
9880;SDS011;4979;51.014;6.678;2022-07-23T13:53:12;5.00;;;2.60;;
9880;SDS011;4979;51.014;6.678;2022-07-23T13:55:42;3.10;;;2.80;;
9880;SDS011;4979;51.014;6.678;2022-07-23T13:58:08;7.60;;;2.83;;
9880;SDS011;4979;51.014;6.678;2022-07-23T14:00:36;8.30;;;5.70;;
9880;SDS011;4979;51.014;6.678;2022-07-23T14:03:07;5.65;;;3.03;;
9880;SDS011;4979;51.014;6.678;2022-07-23T14:05:33;4.95;;;4.43;;
9880;SDS011;4979;51.014;6.678;2022-07-23T14:07:59;3.75;;;3.22;;
9880;SDS011;4979;51.014;6.678;2022-07-23T14:10:25;4.88;;;2.95;;
9880;SDS011;4979;51.014;6.678;2022-07-23T14:12:52;3.70;;;3.40;;
9880;SDS011;4979;51.014;6.678;2022-07-23T14:15:21;3.97;;;2.67;;
9880;SDS011;4979;51.014;6.678;2022-07-23T14:17:47;3.70;;;3.00;;
9880;SDS011;4979;51.014;6.678;2022-07-23T14:20:13;3.85;;;2.50;;
9880;SDS011;4979;51.014;6.678;2022-07-23T14:22:39;2.60;;;2.40;;
9880;SDS011;4979;51.014;6.678;2022-07-23T14:25:06;6.32;;;2.75;;
9880;SDS011;4979;51.014;6.678;2022-07-23T14:27:33;2.90;;;2.60;;
9880;SDS011;4979;51.014;6.678;2022-07-23T14:29:59;3.35;;;2.67;;
9880;SDS011;4979;51.014;6.678;2022-07-23T14:32:25;4.90;;;3.30;;
9880;SDS011;4979;51.014;6.678;2022-07-23T14:34:51;4.57;;;3.58;;
9880;SDS011;4979;51.014;6.678;2022-07-23T14:37:17;5.07;;;3.25;;
9880;SDS011;4979;51.014;6.678;2022-07-23T14:39:42;4.53;;;3.10;;
9880;SDS011;4979;51.014;6.678;2022-07-23T14:42:09;4.65;;;2.80;;
9880;SDS011;4979;51.014;6.678;2022-07-23T14:44:35;3.90;;;2.70;;
9880;SDS011;4979;51.014;6.678;2022-07-23T14:47:02;3.20;;;2.92;;
9880;SDS011;4979;51.014;6.678;2022-07-23T14:49:29;3.97;;;2.50;;
9880;SDS011;4979;51.014;6.678;2022-07-23T14:51:59;4.50;;;3.08;;
9880;SDS011;4979;51.014;6.678;2022-07-23T14:54:25;3.17;;;2.85;;
9880;SDS011;4979;51.014;6.678;2022-07-23T14:56:52;3.60;;;3.30;;
9880;SDS011;4979;51.014;6.678;2022-07-23T14:59:19;5.15;;;3.38;;
9880;SDS011;4979;51.014;6.678;2022-07-23T15:01:45;4.18;;;3.45;;
9880;SDS011;4979;51.014;6.678;2022-07-23T15:04:10;5.20;;;3.10;;
9880;SDS011;4979;51.014;6.678;2022-07-23T15:06:36;3.58;;;3.10;;
9880;SDS011;4979;51.014;6.678;2022-07-23T15:09:03;3.35;;;2.90;;
9880;SDS011;4979;51.014;6.678;2022-07-23T15:11:29;3.90;;;3.13;;
9880;SDS011;4979;51.014;6.678;2022-07-23T15:13:58;7.32;;;3.10;;
9880;SDS011;4979;51.014;6.678;2022-07-23T15:16:23;3.30;;;3.00;;
9880;SDS011;4979;51.014;6.678;2022-07-23T15:18:49;3.50;;;3.20;;
9880;SDS011;4979;51.014;6.678;2022-07-23T15:21:14;3.42;;;2.90;;
9880;SDS011;4979;51.014;6.678;2022-07-23T15:23:40;4.43;;;2.17;;
9880;SDS011;4979;51.014;6.678;2022-07-23T15:26:06;2.63;;;2.40;;
9880;SDS011;4979;51.014;6.678;2022-07-23T15:28:32;3.40;;;2.85;;
9880;SDS011;4979;51.014;6.678;2022-07-23T15:30:59;3.13;;;2.60;;
9880;SDS011;4979;51.014;6.678;2022-07-23T15:33:25;2.78;;;2.58;;
9880;SDS011;4979;51.014;6.678;2022-07-23T15:35:50;3.20;;;2.75;;
9880;SDS011;4979;51.014;6.678;2022-07-23T15:38:17;3.35;;;2.78;;
9880;SDS011;4979;51.014;6.678;2022-07-23T15:40:43;6.57;;;2.90;;
9880;SDS011;4979;51.014;6.678;2022-07-23T15:43:09;2.78;;;2.58;;
9880;SDS011;4979;51.014;6.678;2022-07-23T15:45:34;4.45;;;2.60;;
9880;SDS011;4979;51.014;6.678;2022-07-23T15:48:00;2.92;;;2.63;;